To NAV CANADA Home Page Login to a new session Search on AWWS site Feedback and Comments Disclaimer Vers la page française équivalente Tips FAQ What's new on the site To the Forecasts and Observations / NOTAM section To "File a Flight Plan" website Publications and other links Update of the User's profile FIC Telephone Numbers My Weather Data Folder Route Weather Data Regional Weather Data Local Weather Data To the Forecasts and Observations / NOTAM section
Request Generated 03/26/2017 at 11:06:28 UTC . Weather information available at that time is displayed.

METAR/TAF

CRANBROOK/CANADIAN ROCKIES INTL/BC    

METAR CYXC 261100Z 00000KT 25SM BKN070 BKN230 M01/M03 A2995 RMK
AC5CI2 SLP165=
METAR CYXC 261000Z 00000KT 25SM SCT070 BKN210 M01/M03 A2994 RMK
AC3CI2 SLP162=
METAR CYXC 260900Z 00000KT 25SM BKN067 00/M03 A2994 RMK AC7 SLP163=

TAF CYXC 260638Z 2607/2619 VRB03KT P6SM FEW050
RMK NXT FCST BY 261300Z=
Your time UTC time
Weather data provided by Environment Canada and NAV CANADA